sensor_id;sensor_type;location;lat;lon;timestamp;temperature;humidity
9083;DHT22;4577;48.704;9.000;2022-12-31T00:01:21;11.80;99.90
9083;DHT22;4577;48.704;9.000;2022-12-31T00:03:47;12.00;99.90
9083;DHT22;4577;48.704;9.000;2022-12-31T00:06:22;12.00;99.90
9083;DHT22;4577;48.704;9.000;2022-12-31T00:08:49;11.90;99.90
9083;DHT22;4577;48.704;9.000;2022-12-31T00:11:15;11.90;99.90
9083;DHT22;4577;48.704;9.000;2022-12-31T00:13:42;11.90;99.90
9083;DHT22;4577;48.704;9.000;2022-12-31T00:16:10;12.00;99.90
9083;DHT22;4577;48.704;9.000;2022-12-31T00:21:07;12.10;99.90
9083;DHT22;4577;48.704;9.000;2022-12-31T00:23:34;11.90;99.90
9083;DHT22;4577;48.704;9.000;2022-12-31T00:26:06;12.10;99.90
9083;DHT22;4577;48.704;9.000;2022-12-31T00:28:34;12.10;99.90
9083;DHT22;4577;48.704;9.000;2022-12-31T00:31:24;12.10;99.90
9083;DHT22;4577;48.704;9.000;2022-12-31T00:33:51;12.10;99.90
9083;DHT22;4577;48.704;9.000;2022-12-31T00:36:22;12.20;99.90
9083;DHT22;4577;48.704;9.000;2022-12-31T00:38:50;12.20;99.90
9083;DHT22;4577;48.704;9.000;2022-12-31T00:41:17;12.30;99.90
9083;DHT22;4577;48.704;9.000;2022-12-31T00:43:44;12.30;99.90
9083;DHT22;4577;48.704;9.000;2022-12-31T00:46:10;12.40;99.90
9083;DHT22;4577;48.704;9.000;2022-12-31T00:48:36;12.40;99.90
9083;DHT22;4577;48.704;9.000;2022-12-31T00:51:05;12.40;99.90
9083;DHT22;4577;48.704;9.000;2022-12-31T00:53:31;12.40;99.90
9083;DHT22;4577;48.704;9.000;2022-12-31T00:56:06;12.50;99.90
9083;DHT22;4577;48.704;9.000;2022-12-31T00:58:32;12.50;99.90
9083;DHT22;4577;48.704;9.000;2022-12-31T01:01:06;12.50;99.90
9083;DHT22;4577;48.704;9.000;2022-12-31T01:03:31;12.50;99.90
9083;DHT22;4577;48.704;9.000;2022-12-31T01:05:58;12.60;99.90
9083;DHT22;4577;48.704;9.000;2022-12-31T01:08:24;12.60;99.90
9083;DHT22;4577;48.704;9.000;2022-12-31T01:10:50;12.60;99.90
9083;DHT22;4577;48.704;9.000;2022-12-31T01:13:34;12.60;99.90
9083;DHT22;4577;48.704;9.000;2022-12-31T01:16:06;12.60;99.90
9083;DHT22;4577;48.704;9.000;2022-12-31T01:21:02;12.50;99.90
9083;DHT22;4577;48.704;9.000;2022-12-31T01:23:28;12.60;99.90
9083;DHT22;4577;48.704;9.000;2022-12-31T01:25:54;12.50;99.90
9083;DHT22;4577;48.704;9.000;2022-12-31T01:28:20;12.60;99.90
9083;DHT22;4577;48.704;9.000;2022-12-31T01:30:45;12.60;99.90
9083;DHT22;4577;48.704;9.000;2022-12-31T01:33:11;12.40;99.90
9083;DHT22;4577;48.704;9.000;2022-12-31T01:38:03;12.70;99.90
9083;DHT22;4577;48.704;9.000;2022-12-31T01:40:28;12.70;99.90
9083;DHT22;4577;48.704;9.000;2022-12-31T01:42:57;12.70;99.90
9083;DHT22;4577;48.704;9.000;2022-12-31T01:45:23;12.60;99.90
9083;DHT22;4577;48.704;9.000;2022-12-31T01:47:52;12.60;99.90
9083;DHT22;4577;48.704;9.000;2022-12-31T01:50:29;12.60;99.90
9083;DHT22;4577;48.704;9.000;2022-12-31T01:52:58;12.60;99.90
9083;DHT22;4577;48.704;9.000;2022-12-31T01:55:35;12.60;99.90
9083;DHT22;4577;48.704;9.000;2022-12-31T01:58:10;12.70;99.90
9083;DHT22;4577;48.704;9.000;2022-12-31T02:03:04;12.70;99.90
9083;DHT22;4577;48.704;9.000;2022-12-31T02:05:37;12.70;99.90
9083;DHT22;4577;48.704;9.000;2022-12-31T02:08:05;12.60;99.90
9083;DHT22;4577;48.704;9.000;2022-12-31T02:12:57;12.50;99.90
9083;DHT22;4577;48.704;9.000;2022-12-31T02:31:38;12.70;99.90
9083;DHT22;4577;48.704;9.000;2022-12-31T02:34:21;12.90;99.90
9083;DHT22;4577;48.704;9.000;2022-12-31T02:36:50;12.90;99.70
9083;DHT22;4577;48.704;9.000;2022-12-31T02:39:16;12.90;99.50
9083;DHT22;4577;48.704;9.000;2022-12-31T02:41:47;13.00;99.50
9083;DHT22;4577;48.704;9.000;2022-12-31T02:44:33;13.00;99.30
9083;DHT22;4577;48.704;9.000;2022-12-31T03:00:19;13.10;98.50
9083;DHT22;4577;48.704;9.000;2022-12-31T03:03:05;13.20;98.50
9083;DHT22;4577;48.704;9.000;2022-12-31T03:05:36;13.20;98.40
9083;DHT22;4577;48.704;9.000;2022-12-31T03:08:03;13.20;98.30
9083;DHT22;4577;48.704;9.000;2022-12-31T03:10:29;13.00;98.10
9083;DHT22;4577;48.704;9.000;2022-12-31T03:15:31;13.30;98.10
9083;DHT22;4577;48.704;9.000;2022-12-31T03:18:12;13.30;98.10
9083;DHT22;4577;48.704;9.000;2022-12-31T03:23:38;13.40;98.00
9083;DHT22;4577;48.704;9.000;2022-12-31T03:26:05;13.40;98.10
9083;DHT22;4577;48.704;9.000;2022-12-31T03:28:36;13.50;98.00
9083;DHT22;4577;48.704;9.000;2022-12-31T03:31:02;13.50;98.10
9083;DHT22;4577;48.704;9.000;2022-12-31T03:33:33;13.60;98.10
9083;DHT22;4577;48.704;9.000;2022-12-31T03:36:04;13.50;98.10
9083;DHT22;4577;48.704;9.000;2022-12-31T03:38:30;13.50;98.20
9083;DHT22;4577;48.704;9.000;2022-12-31T03:40:56;13.90;98.40
9083;DHT22;4577;48.704;9.000;2022-12-31T03:43:22;13.50;98.40
9083;DHT22;4577;48.704;9.000;2022-12-31T03:45:51;13.50;98.40
9083;DHT22;4577;48.704;9.000;2022-12-31T03:48:18;13.50;98.50
9083;DHT22;4577;48.704;9.000;2022-12-31T03:50:44;13.50;98.50
9083;DHT22;4577;48.704;9.000;2022-12-31T03:55:36;13.40;98.60
9083;DHT22;4577;48.704;9.000;2022-12-31T03:58:02;13.50;98.50
9083;DHT22;4577;48.704;9.000;2022-12-31T04:00:28;13.50;98.30
9083;DHT22;4577;48.704;9.000;2022-12-31T04:02:54;13.50;98.30
9083;DHT22;4577;48.704;9.000;2022-12-31T04:05:20;13.60;98.30
9083;DHT22;4577;48.704;9.000;2022-12-31T04:07:47;13.50;98.10
9083;DHT22;4577;48.704;9.000;2022-12-31T04:10:14;13.60;98.10
9083;DHT22;4577;48.704;9.000;2022-12-31T04:12:40;13.60;98.10
9083;DHT22;4577;48.704;9.000;2022-12-31T04:15:08;13.70;97.90
9083;DHT22;4577;48.704;9.000;2022-12-31T04:17:34;13.80;97.90
9083;DHT22;4577;48.704;9.000;2022-12-31T04:20:01;13.80;97.90
9083;DHT22;4577;48.704;9.000;2022-12-31T04:22:27;13.80;97.80
9083;DHT22;4577;48.704;9.000;2022-12-31T04:24:53;13.90;97.90
9083;DHT22;4577;48.704;9.000;2022-12-31T04:32:10;13.80;98.00
9083;DHT22;4577;48.704;9.000;2022-12-31T04:34:36;13.80;97.90
9083;DHT22;4577;48.704;9.000;2022-12-31T04:37:02;13.90;97.90
9083;DHT22;4577;48.704;9.000;2022-12-31T04:41:54;13.90;97.90
9083;DHT22;4577;48.704;9.000;2022-12-31T04:44:20;13.90;97.70
9083;DHT22;4577;48.704;9.000;2022-12-31T04:49:12;13.90;97.60
9083;DHT22;4577;48.704;9.000;2022-12-31T04:54:04;14.40;97.70
9083;DHT22;4577;48.704;9.000;2022-12-31T04:56:30;14.00;97.40
9083;DHT22;4577;48.704;9.000;2022-12-31T04:58:56;14.10;97.20
9083;DHT22;4577;48.704;9.000;2022-12-31T05:01:23;14.10;97.30
9083;DHT22;4577;48.704;9.000;2022-12-31T05:03:49;14.00;97.20
9083;DHT22;4577;48.704;9.000;2022-12-31T05:06:20;14.10;97.40
9083;DHT22;4577;48.704;9.000;2022-12-31T05:08:46;14.00;97.50
9083;DHT22;4577;48.704;9.000;2022-12-31T05:11:12;14.00;97.40
9083;DHT22;4577;48.704;9.000;2022-12-31T05:16:05;14.00;97.40
9083;DHT22;4577;48.704;9.000;2022-12-31T05:18:32;14.10;97.50
9083;DHT22;4577;48.704;9.000;2022-12-31T05:20:58;14.10;97.40
9083;DHT22;4577;48.704;9.000;2022-12-31T05:23:25;14.20;97.30
9083;DHT22;4577;48.704;9.000;2022-12-31T05:25:51;14.20;97.30
9083;DHT22;4577;48.704;9.000;2022-12-31T05:28:17;14.10;97.10
9083;DHT22;4577;48.704;9.000;2022-12-31T05:30:43;14.10;96.90
9083;DHT22;4577;48.704;9.000;2022-12-31T05:33:09;14.20;96.80
9083;DHT22;4577;48.704;9.000;2022-12-31T05:35:35;14.20;96.60
9083;DHT22;4577;48.704;9.000;2022-12-31T05:38:01;14.20;96.50
9083;DHT22;4577;48.704;9.000;2022-12-31T05:40:27;14.20;96.40
9083;DHT22;4577;48.704;9.000;2022-12-31T05:42:53;14.10;96.30
9083;DHT22;4577;48.704;9.000;2022-12-31T05:45:19;14.10;96.30
9083;DHT22;4577;48.704;9.000;2022-12-31T05:47:45;14.10;96.30
9083;DHT22;4577;48.704;9.000;2022-12-31T05:50:12;14.20;96.10
9083;DHT22;4577;48.704;9.000;2022-12-31T05:52:40;14.20;96.30
9083;DHT22;4577;48.704;9.000;2022-12-31T05:55:06;14.10;96.40
9083;DHT22;4577;48.704;9.000;2022-12-31T05:59:57;14.00;96.50
9083;DHT22;4577;48.704;9.000;2022-12-31T06:02:23;14.00;96.40
9083;DHT22;4577;48.704;9.000;2022-12-31T06:04:49;14.00;96.50
9083;DHT22;4577;48.704;9.000;2022-12-31T06:34:03;13.80;97.10
9083;DHT22;4577;48.704;9.000;2022-12-31T06:41:24;13.80;97.00
9083;DHT22;4577;48.704;9.000;2022-12-31T06:46:17;13.70;97.00
9083;DHT22;4577;48.704;9.000;2022-12-31T06:51:14;13.70;97.10
9083;DHT22;4577;48.704;9.000;2022-12-31T06:56:18;13.70;97.30
9083;DHT22;4577;48.704;9.000;2022-12-31T06:58:45;13.70;97.30
9083;DHT22;4577;48.704;9.000;2022-12-31T07:07:28;13.70;97.20
9083;DHT22;4577;48.704;9.000;2022-12-31T07:13:00;13.70;97.00
9083;DHT22;4577;48.704;9.000;2022-12-31T07:16:03;13.70;96.90
9083;DHT22;4577;48.704;9.000;2022-12-31T07:21:17;13.80;96.70
9083;DHT22;4577;48.704;9.000;2022-12-31T07:23:48;13.80;96.60
9083;DHT22;4577;48.704;9.000;2022-12-31T07:31:31;13.90;96.50
9083;DHT22;4577;48.704;9.000;2022-12-31T07:34:12;13.80;96.50
9083;DHT22;4577;48.704;9.000;2022-12-31T07:39:25;13.90;96.40
9083;DHT22;4577;48.704;9.000;2022-12-31T07:42:24;13.90;96.50
9083;DHT22;4577;48.704;9.000;2022-12-31T07:47:26;13.90;96.40
9083;DHT22;4577;48.704;9.000;2022-12-31T07:52:19;13.90;96.30
9083;DHT22;4577;48.704;9.000;2022-12-31T07:57:12;13.90;96.20
9083;DHT22;4577;48.704;9.000;2022-12-31T08:00:21;13.90;96.30
9083;DHT22;4577;48.704;9.000;2022-12-31T08:05:36;14.00;95.90
9083;DHT22;4577;48.704;9.000;2022-12-31T08:09:32;14.00;95.80
9083;DHT22;4577;48.704;9.000;2022-12-31T08:14:12;13.80;95.60
9083;DHT22;4577;48.704;9.000;2022-12-31T08:21:57;14.10;95.10
9083;DHT22;4577;48.704;9.000;2022-12-31T08:31:54;14.20;94.60
9083;DHT22;4577;48.704;9.000;2022-12-31T08:37:31;14.30;94.40
9083;DHT22;4577;48.704;9.000;2022-12-31T08:46:28;14.40;93.90
9083;DHT22;4577;48.704;9.000;2022-12-31T08:49:07;14.40;94.10
9083;DHT22;4577;48.704;9.000;2022-12-31T08:54:11;14.50;94.00
9083;DHT22;4577;48.704;9.000;2022-12-31T09:05:13;14.50;93.40
9083;DHT22;4577;48.704;9.000;2022-12-31T09:10:22;14.70;93.30
9083;DHT22;4577;48.704;9.000;2022-12-31T09:13:18;14.70;93.10
9083;DHT22;4577;48.704;9.000;2022-12-31T09:26:50;14.90;92.50
9083;DHT22;4577;48.704;9.000;2022-12-31T09:29:41;15.00;92.60
9083;DHT22;4577;48.704;9.000;2022-12-31T09:34:56;15.00;92.10
9083;DHT22;4577;48.704;9.000;2022-12-31T09:38:17;15.10;91.90
9083;DHT22;4577;48.704;9.000;2022-12-31T09:43:31;15.20;91.30
9083;DHT22;4577;48.704;9.000;2022-12-31T09:57:21;15.50;90.50
9083;DHT22;4577;48.704;9.000;2022-12-31T10:00:19;15.90;90.50
9083;DHT22;4577;48.704;9.000;2022-12-31T10:03:00;15.60;90.10
9083;DHT22;4577;48.704;9.000;2022-12-31T10:08:43;15.70;89.00
9083;DHT22;4577;48.704;9.000;2022-12-31T10:11:28;15.80;88.90
9083;DHT22;4577;48.704;9.000;2022-12-31T10:14:55;15.70;89.20
9083;DHT22;4577;48.704;9.000;2022-12-31T10:31:39;16.00;87.30
9083;DHT22;4577;48.704;9.000;2022-12-31T10:37:43;16.00;86.30
9083;DHT22;4577;48.704;9.000;2022-12-31T10:49:04;16.30;84.70
9083;DHT22;4577;48.704;9.000;2022-12-31T11:19:01;16.90;77.90
9083;DHT22;4577;48.704;9.000;2022-12-31T11:32:04;17.00;77.20
9083;DHT22;4577;48.704;9.000;2022-12-31T11:37:41;17.00;76.60
9083;DHT22;4577;48.704;9.000;2022-12-31T11:40:40;17.30;77.70
9083;DHT22;4577;48.704;9.000;2022-12-31T11:46:04;17.50;77.10
9083;DHT22;4577;48.704;9.000;2022-12-31T11:58:40;17.40;78.00
9083;DHT22;4577;48.704;9.000;2022-12-31T12:01:23;17.40;78.10
9083;DHT22;4577;48.704;9.000;2022-12-31T12:06:21;17.50;74.90
9083;DHT22;4577;48.704;9.000;2022-12-31T12:11:27;17.50;74.30
9083;DHT22;4577;48.704;9.000;2022-12-31T12:16:21;17.50;74.80
9083;DHT22;4577;48.704;9.000;2022-12-31T12:18:50;17.50;74.80
9083;DHT22;4577;48.704;9.000;2022-12-31T12:24:01;17.60;74.00
9083;DHT22;4577;48.704;9.000;2022-12-31T12:26:36;17.60;74.00
9083;DHT22;4577;48.704;9.000;2022-12-31T12:29:20;17.60;73.90
9083;DHT22;4577;48.704;9.000;2022-12-31T12:34:36;17.60;73.40
9083;DHT22;4577;48.704;9.000;2022-12-31T12:37:03;17.20;72.50
9083;DHT22;4577;48.704;9.000;2022-12-31T12:39:32;17.60;72.40
9083;DHT22;4577;48.704;9.000;2022-12-31T12:42:03;17.70;71.50
9083;DHT22;4577;48.704;9.000;2022-12-31T12:44:30;17.60;69.70
9083;DHT22;4577;48.704;9.000;2022-12-31T12:46:56;17.80;69.70
9083;DHT22;4577;48.704;9.000;2022-12-31T13:00:18;17.90;67.90
9083;DHT22;4577;48.704;9.000;2022-12-31T13:11:59;17.90;67.90
9083;DHT22;4577;48.704;9.000;2022-12-31T13:22:46;17.70;68.00
9083;DHT22;4577;48.704;9.000;2022-12-31T13:27:56;17.70;67.50
9083;DHT22;4577;48.704;9.000;2022-12-31T13:30:27;17.70;67.50
9083;DHT22;4577;48.704;9.000;2022-12-31T13:33:16;17.80;68.40
9083;DHT22;4577;48.704;9.000;2022-12-31T13:35:52;17.70;68.40
9083;DHT22;4577;48.704;9.000;2022-12-31T13:38:25;17.70;68.80
9083;DHT22;4577;48.704;9.000;2022-12-31T13:41:01;17.70;68.90
9083;DHT22;4577;48.704;9.000;2022-12-31T13:43:55;17.70;69.70
9083;DHT22;4577;48.704;9.000;2022-12-31T13:49:49;17.60;69.70
9083;DHT22;4577;48.704;9.000;2022-12-31T13:52:53;17.60;70.20
9083;DHT22;4577;48.704;9.000;2022-12-31T13:55:37;17.60;70.40
9083;DHT22;4577;48.704;9.000;2022-12-31T14:00:49;17.60;71.00
9083;DHT22;4577;48.704;9.000;2022-12-31T14:06:30;17.60;71.10
9083;DHT22;4577;48.704;9.000;2022-12-31T14:08:57;17.60;70.70
9083;DHT22;4577;48.704;9.000;2022-12-31T14:17:27;17.60;70.90
9083;DHT22;4577;48.704;9.000;2022-12-31T14:25:20;17.50;70.30
9083;DHT22;4577;48.704;9.000;2022-12-31T14:27:49;17.50;70.50
9083;DHT22;4577;48.704;9.000;2022-12-31T14:30:23;17.50;70.00
9083;DHT22;4577;48.704;9.000;2022-12-31T14:43:44;17.40;70.00
9083;DHT22;4577;48.704;9.000;2022-12-31T14:46:18;17.30;70.10
9083;DHT22;4577;48.704;9.000;2022-12-31T14:49:20;17.30;69.80
9083;DHT22;4577;48.704;9.000;2022-12-31T14:51:49;17.30;70.20
9083;DHT22;4577;48.704;9.000;2022-12-31T14:54:27;17.20;70.00
9083;DHT22;4577;48.704;9.000;2022-12-31T14:59:28;17.20;69.90
9083;DHT22;4577;48.704;9.000;2022-12-31T15:01:55;17.20;70.00
9083;DHT22;4577;48.704;9.000;2022-12-31T15:04:40;17.20;70.50
9083;DHT22;4577;48.704;9.000;2022-12-31T15:07:27;17.20;70.40
9083;DHT22;4577;48.704;9.000;2022-12-31T15:13:06;17.10;70.00
9083;DHT22;4577;48.704;9.000;2022-12-31T15:15:40;17.10;70.40
9083;DHT22;4577;48.704;9.000;2022-12-31T15:18:41;17.10;70.00
9083;DHT22;4577;48.704;9.000;2022-12-31T15:21:37;17.10;70.20
9083;DHT22;4577;48.704;9.000;2022-12-31T15:24:25;17.00;69.90
9083;DHT22;4577;48.704;9.000;2022-12-31T15:26:57;17.00;70.10
9083;DHT22;4577;48.704;9.000;2022-12-31T15:32:01;16.90;70.10
9083;DHT22;4577;48.704;9.000;2022-12-31T15:34:30;17.10;71.10
9083;DHT22;4577;48.704;9.000;2022-12-31T15:37:00;16.90;70.50
9083;DHT22;4577;48.704;9.000;2022-12-31T15:49:47;16.70;73.10
9083;DHT22;4577;48.704;9.000;2022-12-31T15:52:23;16.70;73.00
9083;DHT22;4577;48.704;9.000;2022-12-31T15:54:56;16.70;73.70
9083;DHT22;4577;48.704;9.000;2022-12-31T15:58:02;16.70;74.80
9083;DHT22;4577;48.704;9.000;2022-12-31T16:00:24;18.30;76.10
9083;DHT22;4577;48.704;9.000;2022-12-31T16:02:53;16.60;74.00
9083;DHT22;4577;48.704;9.000;2022-12-31T16:05:22;16.50;73.90
9083;DHT22;4577;48.704;9.000;2022-12-31T16:07:52;16.50;73.90
9083;DHT22;4577;48.704;9.000;2022-12-31T16:18:08;16.30;74.00
9083;DHT22;4577;48.704;9.000;2022-12-31T16:20:40;16.30;74.30
9083;DHT22;4577;48.704;9.000;2022-12-31T16:23:36;16.20;74.70
9083;DHT22;4577;48.704;9.000;2022-12-31T16:28:31;16.10;75.60
9083;DHT22;4577;48.704;9.000;2022-12-31T16:31:01;16.00;76.40
9083;DHT22;4577;48.704;9.000;2022-12-31T16:33:27;15.90;76.50
9083;DHT22;4577;48.704;9.000;2022-12-31T16:35:55;15.90;77.00
9083;DHT22;4577;48.704;9.000;2022-12-31T16:51:03;15.40;79.20
9083;DHT22;4577;48.704;9.000;2022-12-31T16:53:31;15.40;79.30
9083;DHT22;4577;48.704;9.000;2022-12-31T16:56:04;15.40;79.50
9083;DHT22;4577;48.704;9.000;2022-12-31T16:58:36;15.30;79.60
9083;DHT22;4577;48.704;9.000;2022-12-31T17:01:17;15.30;79.60
9083;DHT22;4577;48.704;9.000;2022-12-31T17:03:51;15.40;79.90
9083;DHT22;4577;48.704;9.000;2022-12-31T17:06:19;15.40;79.80
9083;DHT22;4577;48.704;9.000;2022-12-31T17:11:30;15.40;80.00
9083;DHT22;4577;48.704;9.000;2022-12-31T17:13:59;15.20;80.20
9083;DHT22;4577;48.704;9.000;2022-12-31T17:16:32;15.20;80.10
9083;DHT22;4577;48.704;9.000;2022-12-31T17:18:58;15.10;80.30
9083;DHT22;4577;48.704;9.000;2022-12-31T17:21:28;15.10;80.60
9083;DHT22;4577;48.704;9.000;2022-12-31T17:24:03;14.90;81.00
9083;DHT22;4577;48.704;9.000;2022-12-31T17:26:33;14.80;81.30
9083;DHT22;4577;48.704;9.000;2022-12-31T17:29:01;14.70;81.60
9083;DHT22;4577;48.704;9.000;2022-12-31T17:39:21;14.50;82.60
9083;DHT22;4577;48.704;9.000;2022-12-31T17:41:49;14.50;82.90
9083;DHT22;4577;48.704;9.000;2022-12-31T17:44:42;14.50;82.80
9083;DHT22;4577;48.704;9.000;2022-12-31T17:47:10;14.50;83.00
9083;DHT22;4577;48.704;9.000;2022-12-31T17:52:11;14.50;82.70
9083;DHT22;4577;48.704;9.000;2022-12-31T17:57:04;14.60;82.30
9083;DHT22;4577;48.704;9.000;2022-12-31T17:59:31;14.70;82.40
9083;DHT22;4577;48.704;9.000;2022-12-31T18:02:00;14.70;82.20
9083;DHT22;4577;48.704;9.000;2022-12-31T18:11:45;14.70;81.70
9083;DHT22;4577;48.704;9.000;2022-12-31T18:14:15;14.70;81.70
9083;DHT22;4577;48.704;9.000;2022-12-31T18:16:41;14.80;81.70
9083;DHT22;4577;48.704;9.000;2022-12-31T18:19:14;14.80;81.70
9083;DHT22;4577;48.704;9.000;2022-12-31T18:21:41;14.80;81.70
9083;DHT22;4577;48.704;9.000;2022-12-31T18:24:12;14.60;81.50
9083;DHT22;4577;48.704;9.000;2022-12-31T18:26:39;14.80;81.60
9083;DHT22;4577;48.704;9.000;2022-12-31T18:29:14;14.80;81.50
9083;DHT22;4577;48.704;9.000;2022-12-31T18:31:42;14.80;81.40
9083;DHT22;4577;48.704;9.000;2022-12-31T18:34:11;14.70;81.30
9083;DHT22;4577;48.704;9.000;2022-12-31T18:41:41;14.90;83.60
9083;DHT22;4577;48.704;9.000;2022-12-31T18:46:36;14.80;81.40
9083;DHT22;4577;48.704;9.000;2022-12-31T18:49:02;14.60;80.30
9083;DHT22;4577;48.704;9.000;2022-12-31T18:51:28;14.50;80.60
9083;DHT22;4577;48.704;9.000;2022-12-31T18:53:53;14.60;80.80
9083;DHT22;4577;48.704;9.000;2022-12-31T18:56:20;14.70;80.90
9083;DHT22;4577;48.704;9.000;2022-12-31T19:01:30;14.40;80.60
9083;DHT22;4577;48.704;9.000;2022-12-31T19:03:58;14.40;80.70
9083;DHT22;4577;48.704;9.000;2022-12-31T19:06:25;14.20;80.60
9083;DHT22;4577;48.704;9.000;2022-12-31T19:11:17;14.30;80.50
9083;DHT22;4577;48.704;9.000;2022-12-31T19:16:09;14.40;80.30
9083;DHT22;4577;48.704;9.000;2022-12-31T19:21:03;14.40;80.40
9083;DHT22;4577;48.704;9.000;2022-12-31T19:25:55;14.30;80.80
9083;DHT22;4577;48.704;9.000;2022-12-31T19:28:25;14.30;81.00
9083;DHT22;4577;48.704;9.000;2022-12-31T19:30:52;14.30;81.50
9083;DHT22;4577;48.704;9.000;2022-12-31T19:33:18;14.10;81.40
9083;DHT22;4577;48.704;9.000;2022-12-31T19:38:24;14.10;81.20
9083;DHT22;4577;48.704;9.000;2022-12-31T19:40:51;14.10;81.20
9083;DHT22;4577;48.704;9.000;2022-12-31T19:43:19;14.10;81.10
9083;DHT22;4577;48.704;9.000;2022-12-31T19:45:45;14.00;81.10
9083;DHT22;4577;48.704;9.000;2022-12-31T19:48:20;14.00;81.10
9083;DHT22;4577;48.704;9.000;2022-12-31T19:50:48;14.10;81.40
9083;DHT22;4577;48.704;9.000;2022-12-31T19:53:22;14.10;82.80
9083;DHT22;4577;48.704;9.000;2022-12-31T19:58:23;14.00;81.90
9083;DHT22;4577;48.704;9.000;2022-12-31T20:00:54;14.00;82.00
9083;DHT22;4577;48.704;9.000;2022-12-31T20:03:20;14.00;82.30
9083;DHT22;4577;48.704;9.000;2022-12-31T20:08:12;13.90;82.40
9083;DHT22;4577;48.704;9.000;2022-12-31T20:13:07;13.90;82.50
9083;DHT22;4577;48.704;9.000;2022-12-31T20:15:33;13.80;82.80
9083;DHT22;4577;48.704;9.000;2022-12-31T20:17:59;13.80;83.40
9083;DHT22;4577;48.704;9.000;2022-12-31T20:20:25;13.70;83.30
9083;DHT22;4577;48.704;9.000;2022-12-31T20:22:56;13.70;83.00
9083;DHT22;4577;48.704;9.000;2022-12-31T20:25:23;13.70;83.30
9083;DHT22;4577;48.704;9.000;2022-12-31T20:27:52;13.70;83.50
9083;DHT22;4577;48.704;9.000;2022-12-31T20:32:45;13.80;82.70
9083;DHT22;4577;48.704;9.000;2022-12-31T20:35:11;13.80;82.40
9083;DHT22;4577;48.704;9.000;2022-12-31T20:37:37;13.70;82.20
9083;DHT22;4577;48.704;9.000;2022-12-31T20:40:03;13.70;82.00
9083;DHT22;4577;48.704;9.000;2022-12-31T20:42:28;13.70;83.50
9083;DHT22;4577;48.704;9.000;2022-12-31T20:44:54;13.90;83.90
9083;DHT22;4577;48.704;9.000;2022-12-31T20:47:20;14.00;85.10
9083;DHT22;4577;48.704;9.000;2022-12-31T20:54:38;14.10;83.30
9083;DHT22;4577;48.704;9.000;2022-12-31T20:57:03;14.10;83.10
9083;DHT22;4577;48.704;9.000;2022-12-31T20:59:29;14.10;82.90
9083;DHT22;4577;48.704;9.000;2022-12-31T21:21:42;13.80;84.90
9083;DHT22;4577;48.704;9.000;2022-12-31T21:31:26;13.80;82.50
9083;DHT22;4577;48.704;9.000;2022-12-31T21:33:52;14.10;82.50
9083;DHT22;4577;48.704;9.000;2022-12-31T21:36:17;13.50;82.60
9083;DHT22;4577;48.704;9.000;2022-12-31T21:41:09;13.50;82.80
9083;DHT22;4577;48.704;9.000;2022-12-31T21:46:24;13.40;83.00
9083;DHT22;4577;48.704;9.000;2022-12-31T21:48:58;13.40;82.90
9083;DHT22;4577;48.704;9.000;2022-12-31T21:53:50;13.40;83.40
9083;DHT22;4577;48.704;9.000;2022-12-31T21:58:45;13.20;83.30
9083;DHT22;4577;48.704;9.000;2022-12-31T22:01:19;13.80;84.00
9083;DHT22;4577;48.704;9.000;2022-12-31T22:04:04;13.40;83.20
9083;DHT22;4577;48.704;9.000;2022-12-31T22:06:31;13.40;83.60
9083;DHT22;4577;48.704;9.000;2022-12-31T22:11:25;14.00;83.80
9083;DHT22;4577;48.704;9.000;2022-12-31T22:13:52;13.70;82.80
9083;DHT22;4577;48.704;9.000;2022-12-31T22:18:45;13.80;82.30
9083;DHT22;4577;48.704;9.000;2022-12-31T22:21:20;13.90;82.40
9083;DHT22;4577;48.704;9.000;2022-12-31T22:23:50;13.80;81.30
9083;DHT22;4577;48.704;9.000;2022-12-31T22:26:18;13.80;81.40
9083;DHT22;4577;48.704;9.000;2022-12-31T22:28:45;13.80;81.30
9083;DHT22;4577;48.704;9.000;2022-12-31T22:31:17;13.90;81.00
9083;DHT22;4577;48.704;9.000;2022-12-31T22:33:43;13.80;80.60
9083;DHT22;4577;48.704;9.000;2022-12-31T22:36:15;13.70;80.60
9083;DHT22;4577;48.704;9.000;2022-12-31T22:38:41;13.60;80.80
9083;DHT22;4577;48.704;9.000;2022-12-31T22:41:10;13.60;81.50
9083;DHT22;4577;48.704;9.000;2022-12-31T22:43:44;13.30;81.30
9083;DHT22;4577;48.704;9.000;2022-12-31T22:46:17;13.40;81.70
9083;DHT22;4577;48.704;9.000;2022-12-31T22:48:42;13.40;81.80
9083;DHT22;4577;48.704;9.000;2022-12-31T22:51:09;13.30;82.30
9083;DHT22;4577;48.704;9.000;2022-12-31T22:56:04;13.40;81.90
9083;DHT22;4577;48.704;9.000;2022-12-31T23:00:56;13.00;82.10
9083;DHT22;4577;48.704;9.000;2022-12-31T23:05:51;13.30;82.90
9083;DHT22;4577;48.704;9.000;2022-12-31T23:08:18;13.30;81.90
9083;DHT22;4577;48.704;9.000;2022-12-31T23:10:46;13.20;81.50
9083;DHT22;4577;48.704;9.000;2022-12-31T23:13:24;13.30;81.30
9083;DHT22;4577;48.704;9.000;2022-12-31T23:24:25;13.10;81.50
9083;DHT22;4577;48.704;9.000;2022-12-31T23:31:43;13.00;81.30
9083;DHT22;4577;48.704;9.000;2022-12-31T23:34:09;13.10;82.20
9083;DHT22;4577;48.704;9.000;2022-12-31T23:39:01;13.00;81.60
9083;DHT22;4577;48.704;9.000;2022-12-31T23:41:26;13.00;81.50
9083;DHT22;4577;48.704;9.000;2022-12-31T23:51:10;12.90;80.90
9083;DHT22;4577;48.704;9.000;2022-12-31T23:53:37;13.00;80.90
9083;DHT22;4577;48.704;9.000;2022-12-31T23:56:16;13.10;82.10
9083;DHT22;4577;48.704;9.000;2022-12-31T23:58:42;13.00;80.90
